Pagina principale
METAR-TAF:

METAR-TAF

Aeroporti :

Montichiari

Brescia, Italia

latitudine: 45-24-02N, longitudine: 010-18-59E, altezza: 104 m

Osservazione

Il bollettino è stato emesso 38 minuti fa, alle 02:50 UTC
Vento 10 kt da nord-ovest
Temperature 10°C
Umidità 76%
Pressione 1018 hPa
Visibilità 10 km o più
nessuna nube inferiore a 1500 m e nessun cumulonembo

METAR: LIPO 240250Z 32010KT CAVOK 10/06 Q1018

Ora: 04:28 (03:28 UTC)

Previsione

Il bollettino è stato emesso 4 ore e 28 minuti fa, alle 23:00 UTC
Previsione valida dal 24 alle 00 UTC al 24 alle 24 UTC
Vento 5 kt da direzioni variabili
Visibilità: 7000 m
Temporaneamente
dal 24 alle 02 UTC al 24 alle 07 UTC
Visibilità: 1200 m
banchi di nebbia

TAF: LIPO 232300Z 2400/2424 VRB05KT 7000 NSC TEMPO 2402/2407 1200 BCFG

Osservazioni e previsioni meteorologiche di più di 4000 aeroporti (messaggi METAR e TAF).

Le stazioni disponibili sono rappresentate dai dischi gialli e rossi sulla carta.

Puntare il mouse per vedere il nome della stazione.

Clicca sopra per visualizzare le osservazioni e previsioni meteorologiche.

Per cambiare la mappa : fare clic sui pulsanti verdi con una croce nera per ingrandire, il pulsante verde con un trattino per diminuire, o sulla freccia verde per le mappe adiacenti.


METAR-TAF: